Eagle, Michigan
Current Conditions -  °F | °C
As of 6:00 PM on Thursday 18 Dec 2014 (Local Time) from KLAN Reporting Station
Overcast Overcast  
Wind Chill: 31°   Ceiling: 1000
Heat Index: 31°   Visibility: 10mi
Dew Point: 28°   Wind: 3mph
Humidity: 89%   Direction: 300°WNW
Pressure: 30.17"   Gusts: NA
Location:  42.81°N, 84.79°W
Report Text: KLAN 182300Z 30003KT 10SM BKN010 OVC016 M01/M02 A3017 RMK AO2 FZRAE00 CIG 007V013 P0000 I1000 T10061022
Loading
Personal Weather Stations






























Interactive Weather Map New forecast layout! Learn more

10-Day Weather Forecast

Advertisements
Track Severe Weather on mobile